sensor_id;sensor_type;location;lat;lon;timestamp;temperature;humidity
13462;DHT22;6803;45.264;5.468;2022-12-20T00:01:34;10.40;99.90
13462;DHT22;6803;45.264;5.468;2022-12-20T00:04:05;10.60;99.90
13462;DHT22;6803;45.264;5.468;2022-12-20T00:06:36;10.60;99.90
13462;DHT22;6803;45.264;5.468;2022-12-20T00:09:10;10.60;99.90
13462;DHT22;6803;45.264;5.468;2022-12-20T00:11:41;10.50;99.90
13462;DHT22;6803;45.264;5.468;2022-12-20T00:14:12;10.50;99.90
13462;DHT22;6803;45.264;5.468;2022-12-20T00:16:43;10.30;99.90
13462;DHT22;6803;45.264;5.468;2022-12-20T00:19:13;10.30;99.90
13462;DHT22;6803;45.264;5.468;2022-12-20T00:21:44;10.20;99.90
13462;DHT22;6803;45.264;5.468;2022-12-20T00:24:15;10.20;99.90
13462;DHT22;6803;45.264;5.468;2022-12-20T00:26:47;10.20;99.90
13462;DHT22;6803;45.264;5.468;2022-12-20T00:29:18;10.00;99.90
13462;DHT22;6803;45.264;5.468;2022-12-20T00:31:49;10.00;99.90
13462;DHT22;6803;45.264;5.468;2022-12-20T00:34:20;9.90;99.90
13462;DHT22;6803;45.264;5.468;2022-12-20T00:36:51;9.90;99.90
13462;DHT22;6803;45.264;5.468;2022-12-20T00:39:22;9.80;99.90
13462;DHT22;6803;45.264;5.468;2022-12-20T00:41:52;9.60;99.90
13462;DHT22;6803;45.264;5.468;2022-12-20T00:44:23;9.60;99.90
13462;DHT22;6803;45.264;5.468;2022-12-20T00:46:54;9.60;99.90
13462;DHT22;6803;45.264;5.468;2022-12-20T00:49:24;9.70;99.90
13462;DHT22;6803;45.264;5.468;2022-12-20T00:51:55;9.90;99.90
13462;DHT22;6803;45.264;5.468;2022-12-20T00:54:26;10.00;99.90
13462;DHT22;6803;45.264;5.468;2022-12-20T00:56:56;9.90;99.90
13462;DHT22;6803;45.264;5.468;2022-12-20T00:59:27;9.80;99.90
13462;DHT22;6803;45.264;5.468;2022-12-20T01:01:58;9.80;99.90
13462;DHT22;6803;45.264;5.468;2022-12-20T01:04:29;9.90;99.90
13462;DHT22;6803;45.264;5.468;2022-12-20T01:06:59;10.10;99.90
13462;DHT22;6803;45.264;5.468;2022-12-20T01:09:31;10.10;99.90
13462;DHT22;6803;45.264;5.468;2022-12-20T01:12:02;10.00;99.90
13462;DHT22;6803;45.264;5.468;2022-12-20T01:14:33;10.10;99.90
13462;DHT22;6803;45.264;5.468;2022-12-20T01:17:03;10.00;99.90
13462;DHT22;6803;45.264;5.468;2022-12-20T01:19:34;10.00;99.90
13462;DHT22;6803;45.264;5.468;2022-12-20T01:22:04;10.10;99.90
13462;DHT22;6803;45.264;5.468;2022-12-20T01:24:35;10.00;99.90
13462;DHT22;6803;45.264;5.468;2022-12-20T01:27:06;10.00;99.90
13462;DHT22;6803;45.264;5.468;2022-12-20T01:29:36;10.10;99.90
13462;DHT22;6803;45.264;5.468;2022-12-20T01:32:07;10.20;99.90
13462;DHT22;6803;45.264;5.468;2022-12-20T01:34:38;10.00;99.90
13462;DHT22;6803;45.264;5.468;2022-12-20T01:37:09;10.00;99.90
13462;DHT22;6803;45.264;5.468;2022-12-20T01:39:40;10.00;99.90
13462;DHT22;6803;45.264;5.468;2022-12-20T01:42:13;10.00;99.90
13462;DHT22;6803;45.264;5.468;2022-12-20T01:47:48;9.90;99.90
13462;DHT22;6803;45.264;5.468;2022-12-20T01:50:19;9.70;99.90
13462;DHT22;6803;45.264;5.468;2022-12-20T01:52:50;9.80;99.90
13462;DHT22;6803;45.264;5.468;2022-12-20T01:55:23;9.70;99.90
13462;DHT22;6803;45.264;5.468;2022-12-20T01:57:57;9.70;99.90
13462;DHT22;6803;45.264;5.468;2022-12-20T02:00:30;9.60;99.90
13462;DHT22;6803;45.264;5.468;2022-12-20T02:03:04;9.60;99.90
13462;DHT22;6803;45.264;5.468;2022-12-20T02:05:37;9.80;99.90
13462;DHT22;6803;45.264;5.468;2022-12-20T02:08:09;9.70;99.90
13462;DHT22;6803;45.264;5.468;2022-12-20T02:10:50;9.50;99.90
13462;DHT22;6803;45.264;5.468;2022-12-20T02:13:24;9.40;99.90
13462;DHT22;6803;45.264;5.468;2022-12-20T02:15:57;9.20;99.90
13462;DHT22;6803;45.264;5.468;2022-12-20T02:18:30;9.20;99.90
13462;DHT22;6803;45.264;5.468;2022-12-20T02:21:27;9.30;99.90
13462;DHT22;6803;45.264;5.468;2022-12-20T02:24:42;9.10;99.90
13462;DHT22;6803;45.264;5.468;2022-12-20T02:30:24;8.90;99.90
13462;DHT22;6803;45.264;5.468;2022-12-20T02:32:59;8.70;99.90
13462;DHT22;6803;45.264;5.468;2022-12-20T02:35:35;8.80;99.90
13462;DHT22;6803;45.264;5.468;2022-12-20T02:38:24;8.80;99.90
13462;DHT22;6803;45.264;5.468;2022-12-20T02:40:58;8.70;99.90
13462;DHT22;6803;45.264;5.468;2022-12-20T02:43:30;8.60;99.90
13462;DHT22;6803;45.264;5.468;2022-12-20T02:46:20;9.00;99.90
13462;DHT22;6803;45.264;5.468;2022-12-20T02:48:54;8.90;99.90
13462;DHT22;6803;45.264;5.468;2022-12-20T02:51:27;9.00;99.90
13462;DHT22;6803;45.264;5.468;2022-12-20T02:54:00;8.90;99.90
13462;DHT22;6803;45.264;5.468;2022-12-20T02:56:34;9.00;99.90
13462;DHT22;6803;45.264;5.468;2022-12-20T02:59:07;9.00;99.90
13462;DHT22;6803;45.264;5.468;2022-12-20T03:01:42;9.00;99.90
13462;DHT22;6803;45.264;5.468;2022-12-20T03:04:33;8.90;99.90
13462;DHT22;6803;45.264;5.468;2022-12-20T03:07:05;9.00;99.90
13462;DHT22;6803;45.264;5.468;2022-12-20T03:09:38;8.70;99.90
13462;DHT22;6803;45.264;5.468;2022-12-20T03:12:11;8.70;99.90
13462;DHT22;6803;45.264;5.468;2022-12-20T03:14:42;8.70;99.90
13462;DHT22;6803;45.264;5.468;2022-12-20T03:17:13;8.60;99.90
13462;DHT22;6803;45.264;5.468;2022-12-20T03:19:44;8.70;99.90
13462;DHT22;6803;45.264;5.468;2022-12-20T03:22:14;8.70;99.90
13462;DHT22;6803;45.264;5.468;2022-12-20T03:24:45;8.80;99.90
13462;DHT22;6803;45.264;5.468;2022-12-20T03:27:16;9.00;99.90
13462;DHT22;6803;45.264;5.468;2022-12-20T03:29:46;9.10;99.90
13462;DHT22;6803;45.264;5.468;2022-12-20T03:32:17;9.30;99.90
13462;DHT22;6803;45.264;5.468;2022-12-20T03:34:48;9.40;99.90
13462;DHT22;6803;45.264;5.468;2022-12-20T03:37:19;9.50;99.90
13462;DHT22;6803;45.264;5.468;2022-12-20T03:39:50;9.40;99.90
13462;DHT22;6803;45.264;5.468;2022-12-20T03:42:20;9.40;99.90
13462;DHT22;6803;45.264;5.468;2022-12-20T03:44:51;9.40;99.90
13462;DHT22;6803;45.264;5.468;2022-12-20T03:47:22;9.40;99.90
13462;DHT22;6803;45.264;5.468;2022-12-20T03:49:52;9.60;99.90
13462;DHT22;6803;45.264;5.468;2022-12-20T03:52:23;9.80;99.90
13462;DHT22;6803;45.264;5.468;2022-12-20T03:54:54;9.80;99.90
13462;DHT22;6803;45.264;5.468;2022-12-20T03:57:24;9.80;99.90
13462;DHT22;6803;45.264;5.468;2022-12-20T03:59:55;9.80;99.90
13462;DHT22;6803;45.264;5.468;2022-12-20T04:02:26;9.90;99.90
13462;DHT22;6803;45.264;5.468;2022-12-20T04:04:57;10.00;99.90
13462;DHT22;6803;45.264;5.468;2022-12-20T04:07:28;9.90;99.90
13462;DHT22;6803;45.264;5.468;2022-12-20T04:09:59;9.70;99.90
13462;DHT22;6803;45.264;5.468;2022-12-20T04:12:29;9.70;99.90
13462;DHT22;6803;45.264;5.468;2022-12-20T04:15:00;9.60;99.90
13462;DHT22;6803;45.264;5.468;2022-12-20T04:17:31;9.70;99.90
13462;DHT22;6803;45.264;5.468;2022-12-20T04:20:01;9.70;99.90
13462;DHT22;6803;45.264;5.468;2022-12-20T04:22:34;9.80;99.90
13462;DHT22;6803;45.264;5.468;2022-12-20T04:25:06;10.00;99.90
13462;DHT22;6803;45.264;5.468;2022-12-20T04:27:36;10.00;99.90
13462;DHT22;6803;45.264;5.468;2022-12-20T04:30:10;9.80;99.90
13462;DHT22;6803;45.264;5.468;2022-12-20T04:32:41;9.70;99.90
13462;DHT22;6803;45.264;5.468;2022-12-20T04:35:11;9.80;99.90
13462;DHT22;6803;45.264;5.468;2022-12-20T04:37:42;10.10;99.90
13462;DHT22;6803;45.264;5.468;2022-12-20T04:40:13;9.90;99.90
13462;DHT22;6803;45.264;5.468;2022-12-20T04:42:44;10.10;99.90
13462;DHT22;6803;45.264;5.468;2022-12-20T04:45:15;10.00;99.90
13462;DHT22;6803;45.264;5.468;2022-12-20T04:47:45;10.10;99.90
13462;DHT22;6803;45.264;5.468;2022-12-20T04:50:16;9.90;99.90
13462;DHT22;6803;45.264;5.468;2022-12-20T04:52:47;10.20;99.90
13462;DHT22;6803;45.264;5.468;2022-12-20T04:55:49;10.30;99.90
13462;DHT22;6803;45.264;5.468;2022-12-20T04:58:20;10.30;99.90
13462;DHT22;6803;45.264;5.468;2022-12-20T05:00:51;10.40;99.90
13462;DHT22;6803;45.264;5.468;2022-12-20T05:03:23;10.30;99.90
13462;DHT22;6803;45.264;5.468;2022-12-20T05:05:55;10.10;99.90
13462;DHT22;6803;45.264;5.468;2022-12-20T05:08:26;9.90;99.90
13462;DHT22;6803;45.264;5.468;2022-12-20T05:10:56;10.20;99.90
13462;DHT22;6803;45.264;5.468;2022-12-20T05:13:27;10.10;99.90
13462;DHT22;6803;45.264;5.468;2022-12-20T05:15:59;9.80;99.90
13462;DHT22;6803;45.264;5.468;2022-12-20T05:18:34;9.80;99.90
13462;DHT22;6803;45.264;5.468;2022-12-20T05:21:07;9.70;99.90
13462;DHT22;6803;45.264;5.468;2022-12-20T05:23:56;9.70;99.90
13462;DHT22;6803;45.264;5.468;2022-12-20T05:26:44;10.00;99.90
13462;DHT22;6803;45.264;5.468;2022-12-20T05:29:14;10.10;99.90
13462;DHT22;6803;45.264;5.468;2022-12-20T05:31:45;9.90;99.90
13462;DHT22;6803;45.264;5.468;2022-12-20T05:34:17;9.80;99.90
13462;DHT22;6803;45.264;5.468;2022-12-20T05:36:47;9.80;99.90
13462;DHT22;6803;45.264;5.468;2022-12-20T05:39:18;10.10;99.90
13462;DHT22;6803;45.264;5.468;2022-12-20T05:44:28;10.00;99.90
13462;DHT22;6803;45.264;5.468;2022-12-20T05:46:59;10.20;99.90
13462;DHT22;6803;45.264;5.468;2022-12-20T05:49:30;10.30;99.90
13462;DHT22;6803;45.264;5.468;2022-12-20T05:52:01;10.20;99.90
13462;DHT22;6803;45.264;5.468;2022-12-20T05:54:32;10.00;99.90
13462;DHT22;6803;45.264;5.468;2022-12-20T05:57:02;9.80;99.90
13462;DHT22;6803;45.264;5.468;2022-12-20T05:59:33;9.70;99.90
13462;DHT22;6803;45.264;5.468;2022-12-20T06:02:04;9.60;99.90
13462;DHT22;6803;45.264;5.468;2022-12-20T06:04:36;9.70;99.90
13462;DHT22;6803;45.264;5.468;2022-12-20T06:07:07;9.60;99.90
13462;DHT22;6803;45.264;5.468;2022-12-20T06:09:38;9.50;99.90
13462;DHT22;6803;45.264;5.468;2022-12-20T06:12:09;9.40;99.90
13462;DHT22;6803;45.264;5.468;2022-12-20T06:14:40;9.70;99.90
13462;DHT22;6803;45.264;5.468;2022-12-20T06:17:11;10.00;99.90
13462;DHT22;6803;45.264;5.468;2022-12-20T06:19:42;9.50;99.90
13462;DHT22;6803;45.264;5.468;2022-12-20T06:22:13;9.60;99.90
13462;DHT22;6803;45.264;5.468;2022-12-20T06:24:43;9.50;99.90
13462;DHT22;6803;45.264;5.468;2022-12-20T06:27:16;9.60;99.90
13462;DHT22;6803;45.264;5.468;2022-12-20T06:29:49;9.50;99.90
13462;DHT22;6803;45.264;5.468;2022-12-20T06:32:22;9.50;99.90
13462;DHT22;6803;45.264;5.468;2022-12-20T06:34:53;9.80;99.90
13462;DHT22;6803;45.264;5.468;2022-12-20T06:37:24;9.90;99.90
13462;DHT22;6803;45.264;5.468;2022-12-20T06:39:55;9.80;99.90
13462;DHT22;6803;45.264;5.468;2022-12-20T06:42:26;9.80;99.90
13462;DHT22;6803;45.264;5.468;2022-12-20T06:44:57;9.90;99.90
13462;DHT22;6803;45.264;5.468;2022-12-20T06:47:28;9.90;99.90
13462;DHT22;6803;45.264;5.468;2022-12-20T06:49:59;9.80;99.90
13462;DHT22;6803;45.264;5.468;2022-12-20T06:52:29;9.70;99.90
13462;DHT22;6803;45.264;5.468;2022-12-20T06:55:00;9.70;99.90
13462;DHT22;6803;45.264;5.468;2022-12-20T06:57:31;9.80;99.90
13462;DHT22;6803;45.264;5.468;2022-12-20T07:00:02;9.80;99.90
13462;DHT22;6803;45.264;5.468;2022-12-20T07:02:34;9.90;99.90
13462;DHT22;6803;45.264;5.468;2022-12-20T07:05:07;10.20;99.90
13462;DHT22;6803;45.264;5.468;2022-12-20T07:07:39;10.40;99.90
13462;DHT22;6803;45.264;5.468;2022-12-20T07:10:12;10.40;99.90
13462;DHT22;6803;45.264;5.468;2022-12-20T07:12:42;10.30;99.90
13462;DHT22;6803;45.264;5.468;2022-12-20T07:15:15;10.50;99.90
13462;DHT22;6803;45.264;5.468;2022-12-20T07:17:46;10.60;99.90
13462;DHT22;6803;45.264;5.468;2022-12-20T07:20:18;10.80;99.90
13462;DHT22;6803;45.264;5.468;2022-12-20T07:22:48;10.80;99.90
13462;DHT22;6803;45.264;5.468;2022-12-20T07:25:19;10.80;99.90
13462;DHT22;6803;45.264;5.468;2022-12-20T07:27:50;10.90;99.90
13462;DHT22;6803;45.264;5.468;2022-12-20T07:30:21;10.90;99.90
13462;DHT22;6803;45.264;5.468;2022-12-20T07:32:54;10.90;99.90
13462;DHT22;6803;45.264;5.468;2022-12-20T07:35:24;10.90;99.90
13462;DHT22;6803;45.264;5.468;2022-12-20T07:37:56;11.00;99.90
13462;DHT22;6803;45.264;5.468;2022-12-20T07:40:26;10.90;99.90
13462;DHT22;6803;45.264;5.468;2022-12-20T07:42:58;11.00;99.90
13462;DHT22;6803;45.264;5.468;2022-12-20T07:45:28;11.00;99.90
13462;DHT22;6803;45.264;5.468;2022-12-20T07:47:59;10.90;99.90
13462;DHT22;6803;45.264;5.468;2022-12-20T07:50:51;10.90;99.90
13462;DHT22;6803;45.264;5.468;2022-12-20T07:53:23;10.90;99.90
13462;DHT22;6803;45.264;5.468;2022-12-20T07:55:57;10.90;99.90
13462;DHT22;6803;45.264;5.468;2022-12-20T07:58:29;10.80;99.90
13462;DHT22;6803;45.264;5.468;2022-12-20T08:01:01;10.70;99.90
13462;DHT22;6803;45.264;5.468;2022-12-20T08:03:35;10.80;99.90
13462;DHT22;6803;45.264;5.468;2022-12-20T08:06:08;10.90;99.90
13462;DHT22;6803;45.264;5.468;2022-12-20T08:08:41;10.90;99.90
13462;DHT22;6803;45.264;5.468;2022-12-20T08:13:53;11.00;99.90
13462;DHT22;6803;45.264;5.468;2022-12-20T08:16:26;11.00;99.90
13462;DHT22;6803;45.264;5.468;2022-12-20T08:18:56;11.10;99.90
13462;DHT22;6803;45.264;5.468;2022-12-20T08:21:28;11.20;99.90
13462;DHT22;6803;45.264;5.468;2022-12-20T08:23:59;11.20;99.90
13462;DHT22;6803;45.264;5.468;2022-12-20T08:26:30;11.00;99.90
13462;DHT22;6803;45.264;5.468;2022-12-20T08:29:01;10.80;99.90
13462;DHT22;6803;45.264;5.468;2022-12-20T08:31:32;10.90;99.90
13462;DHT22;6803;45.264;5.468;2022-12-20T08:34:03;11.00;99.90
13462;DHT22;6803;45.264;5.468;2022-12-20T08:36:34;11.20;99.90
13462;DHT22;6803;45.264;5.468;2022-12-20T08:39:05;11.20;99.90
13462;DHT22;6803;45.264;5.468;2022-12-20T08:41:36;11.20;99.90
13462;DHT22;6803;45.264;5.468;2022-12-20T08:44:07;11.40;99.90
13462;DHT22;6803;45.264;5.468;2022-12-20T08:46:39;11.50;99.90
13462;DHT22;6803;45.264;5.468;2022-12-20T08:49:10;11.50;99.90
13462;DHT22;6803;45.264;5.468;2022-12-20T08:51:41;11.50;99.90
13462;DHT22;6803;45.264;5.468;2022-12-20T08:54:11;11.70;99.90
13462;DHT22;6803;45.264;5.468;2022-12-20T08:56:42;11.90;99.90
13462;DHT22;6803;45.264;5.468;2022-12-20T08:59:13;11.90;99.90
13462;DHT22;6803;45.264;5.468;2022-12-20T09:01:44;12.10;99.90
13462;DHT22;6803;45.264;5.468;2022-12-20T09:04:15;12.10;99.90
13462;DHT22;6803;45.264;5.468;2022-12-20T09:06:46;12.00;99.90
13462;DHT22;6803;45.264;5.468;2022-12-20T09:09:16;12.00;99.90
13462;DHT22;6803;45.264;5.468;2022-12-20T09:11:47;12.10;99.90
13462;DHT22;6803;45.264;5.468;2022-12-20T09:14:18;12.10;99.90
13462;DHT22;6803;45.264;5.468;2022-12-20T09:16:49;12.40;99.90
13462;DHT22;6803;45.264;5.468;2022-12-20T09:19:20;12.30;99.90
13462;DHT22;6803;45.264;5.468;2022-12-20T09:21:51;12.20;99.90
13462;DHT22;6803;45.264;5.468;2022-12-20T09:24:23;12.50;99.90
13462;DHT22;6803;45.264;5.468;2022-12-20T09:26:54;12.40;99.90
13462;DHT22;6803;45.264;5.468;2022-12-20T09:29:25;12.40;99.90
13462;DHT22;6803;45.264;5.468;2022-12-20T09:31:57;12.40;99.90
13462;DHT22;6803;45.264;5.468;2022-12-20T09:34:29;12.60;99.90
13462;DHT22;6803;45.264;5.468;2022-12-20T09:37:00;12.90;99.90
13462;DHT22;6803;45.264;5.468;2022-12-20T09:39:31;13.10;99.90
13462;DHT22;6803;45.264;5.468;2022-12-20T09:42:06;13.00;99.90
13462;DHT22;6803;45.264;5.468;2022-12-20T09:44:40;13.00;99.90
13462;DHT22;6803;45.264;5.468;2022-12-20T09:47:13;13.10;99.90
13462;DHT22;6803;45.264;5.468;2022-12-20T09:49:47;13.10;99.90
13462;DHT22;6803;45.264;5.468;2022-12-20T09:52:43;13.00;99.90
13462;DHT22;6803;45.264;5.468;2022-12-20T09:55:20;13.00;99.90
13462;DHT22;6803;45.264;5.468;2022-12-20T09:57:59;13.00;99.90
13462;DHT22;6803;45.264;5.468;2022-12-20T10:00:33;13.00;99.90
13462;DHT22;6803;45.264;5.468;2022-12-20T10:03:03;13.10;99.90
13462;DHT22;6803;45.264;5.468;2022-12-20T10:05:38;13.40;99.90
13462;DHT22;6803;45.264;5.468;2022-12-20T10:10:55;13.50;99.90
13462;DHT22;6803;45.264;5.468;2022-12-20T10:13:34;13.50;99.90
13462;DHT22;6803;45.264;5.468;2022-12-20T10:16:15;13.40;99.90
13462;DHT22;6803;45.264;5.468;2022-12-20T10:18:52;13.40;99.90
13462;DHT22;6803;45.264;5.468;2022-12-20T10:21:27;13.40;99.90
13462;DHT22;6803;45.264;5.468;2022-12-20T10:24:00;13.30;99.90
13462;DHT22;6803;45.264;5.468;2022-12-20T10:26:32;13.70;99.90
13462;DHT22;6803;45.264;5.468;2022-12-20T10:29:03;13.70;99.90
13462;DHT22;6803;45.264;5.468;2022-12-20T10:31:35;13.70;99.90
13462;DHT22;6803;45.264;5.468;2022-12-20T10:34:05;13.70;99.90
13462;DHT22;6803;45.264;5.468;2022-12-20T10:36:37;14.00;99.90
13462;DHT22;6803;45.264;5.468;2022-12-20T10:39:09;14.20;99.90
13462;DHT22;6803;45.264;5.468;2022-12-20T10:41:50;14.20;99.90
13462;DHT22;6803;45.264;5.468;2022-12-20T10:44:23;14.10;99.90
13462;DHT22;6803;45.264;5.468;2022-12-20T10:46:55;14.00;99.90
13462;DHT22;6803;45.264;5.468;2022-12-20T10:49:29;14.00;99.90
13462;DHT22;6803;45.264;5.468;2022-12-20T10:52:07;14.10;99.90
13462;DHT22;6803;45.264;5.468;2022-12-20T10:54:36;14.00;99.90
13462;DHT22;6803;45.264;5.468;2022-12-20T10:57:17;14.10;99.90
13462;DHT22;6803;45.264;5.468;2022-12-20T10:59:52;14.10;99.90
13462;DHT22;6803;45.264;5.468;2022-12-20T11:02:29;14.10;99.90
13462;DHT22;6803;45.264;5.468;2022-12-20T11:05:03;14.30;99.90
13462;DHT22;6803;45.264;5.468;2022-12-20T11:07:35;14.30;99.90
13462;DHT22;6803;45.264;5.468;2022-12-20T11:10:17;14.40;99.90
13462;DHT22;6803;45.264;5.468;2022-12-20T11:12:54;14.50;99.90
13462;DHT22;6803;45.264;5.468;2022-12-20T11:15:27;14.50;99.90
13462;DHT22;6803;45.264;5.468;2022-12-20T11:18:03;14.40;99.90
13462;DHT22;6803;45.264;5.468;2022-12-20T11:20:40;14.40;99.90
13462;DHT22;6803;45.264;5.468;2022-12-20T11:23:17;14.40;99.90
13462;DHT22;6803;45.264;5.468;2022-12-20T11:25:57;14.50;99.90
13462;DHT22;6803;45.264;5.468;2022-12-20T11:28:37;14.30;99.90
13462;DHT22;6803;45.264;5.468;2022-12-20T11:31:13;14.30;99.90
13462;DHT22;6803;45.264;5.468;2022-12-20T11:34:00;14.40;99.90
13462;DHT22;6803;45.264;5.468;2022-12-20T11:36:38;14.40;99.90
13462;DHT22;6803;45.264;5.468;2022-12-20T11:39:13;14.50;99.90
13462;DHT22;6803;45.264;5.468;2022-12-20T11:41:47;14.70;99.90
13462;DHT22;6803;45.264;5.468;2022-12-20T11:44:24;14.50;99.90
13462;DHT22;6803;45.264;5.468;2022-12-20T11:47:05;14.40;99.90
13462;DHT22;6803;45.264;5.468;2022-12-20T11:52:31;14.40;99.90
13462;DHT22;6803;45.264;5.468;2022-12-20T11:55:06;14.30;99.90
13462;DHT22;6803;45.264;5.468;2022-12-20T11:57:42;14.30;99.90
13462;DHT22;6803;45.264;5.468;2022-12-20T12:00:16;14.20;99.90
13462;DHT22;6803;45.264;5.468;2022-12-20T12:02:50;14.30;99.90
13462;DHT22;6803;45.264;5.468;2022-12-20T12:05:27;14.30;99.90
13462;DHT22;6803;45.264;5.468;2022-12-20T12:08:00;14.30;99.90
13462;DHT22;6803;45.264;5.468;2022-12-20T12:10:34;14.20;99.90
13462;DHT22;6803;45.264;5.468;2022-12-20T12:13:13;14.20;99.90
13462;DHT22;6803;45.264;5.468;2022-12-20T12:15:50;14.40;99.90
13462;DHT22;6803;45.264;5.468;2022-12-20T12:18:22;14.20;99.90
13462;DHT22;6803;45.264;5.468;2022-12-20T12:20:58;14.20;99.90
13462;DHT22;6803;45.264;5.468;2022-12-20T12:23:34;14.20;99.90
13462;DHT22;6803;45.264;5.468;2022-12-20T12:26:09;14.30;99.90
13462;DHT22;6803;45.264;5.468;2022-12-20T12:28:40;14.30;99.90
13462;DHT22;6803;45.264;5.468;2022-12-20T12:31:13;14.50;99.90
13462;DHT22;6803;45.264;5.468;2022-12-20T12:33:47;14.80;99.90
13462;DHT22;6803;45.264;5.468;2022-12-20T12:36:36;14.70;99.90
13462;DHT22;6803;45.264;5.468;2022-12-20T12:39:29;14.70;99.90
13462;DHT22;6803;45.264;5.468;2022-12-20T12:42:25;14.70;99.90
13462;DHT22;6803;45.264;5.468;2022-12-20T12:44:58;14.70;99.90
13462;DHT22;6803;45.264;5.468;2022-12-20T12:47:33;14.60;99.90
13462;DHT22;6803;45.264;5.468;2022-12-20T12:50:08;14.60;99.90
13462;DHT22;6803;45.264;5.468;2022-12-20T12:52:47;14.80;99.90
13462;DHT22;6803;45.264;5.468;2022-12-20T12:55:55;14.70;99.90
13462;DHT22;6803;45.264;5.468;2022-12-20T12:58:35;14.50;99.90
13462;DHT22;6803;45.264;5.468;2022-12-20T13:01:11;14.60;99.90
13462;DHT22;6803;45.264;5.468;2022-12-20T13:03:44;14.80;99.90
13462;DHT22;6803;45.264;5.468;2022-12-20T13:06:50;14.70;99.90
13462;DHT22;6803;45.264;5.468;2022-12-20T13:09:35;14.60;99.90
13462;DHT22;6803;45.264;5.468;2022-12-20T13:11:55;14.70;99.90
13462;DHT22;6803;45.264;5.468;2022-12-20T13:14:46;14.80;99.90
13462;DHT22;6803;45.264;5.468;2022-12-20T13:17:54;14.70;99.90
13462;DHT22;6803;45.264;5.468;2022-12-20T13:20:28;14.80;99.90
13462;DHT22;6803;45.264;5.468;2022-12-20T13:23:14;14.80;99.90
13462;DHT22;6803;45.264;5.468;2022-12-20T13:25:48;14.60;99.90
13462;DHT22;6803;45.264;5.468;2022-12-20T13:28:44;14.60;99.90
13462;DHT22;6803;45.264;5.468;2022-12-20T13:31:31;14.50;99.90
13462;DHT22;6803;45.264;5.468;2022-12-20T13:34:22;14.50;99.90
13462;DHT22;6803;45.264;5.468;2022-12-20T13:36:38;14.80;99.90
13462;DHT22;6803;45.264;5.468;2022-12-20T13:42:20;14.60;99.90
13462;DHT22;6803;45.264;5.468;2022-12-20T13:44:52;14.90;99.90
13462;DHT22;6803;45.264;5.468;2022-12-20T13:47:35;14.60;99.90
13462;DHT22;6803;45.264;5.468;2022-12-20T13:53:17;14.70;99.90
13462;DHT22;6803;45.264;5.468;2022-12-20T13:55:48;14.60;99.90
13462;DHT22;6803;45.264;5.468;2022-12-20T13:58:21;14.50;99.90
13462;DHT22;6803;45.264;5.468;2022-12-20T14:00:53;14.40;99.90
13462;DHT22;6803;45.264;5.468;2022-12-20T14:03:27;14.30;99.90
13462;DHT22;6803;45.264;5.468;2022-12-20T14:06:00;14.30;99.90
13462;DHT22;6803;45.264;5.468;2022-12-20T14:08:35;14.20;99.90
13462;DHT22;6803;45.264;5.468;2022-12-20T14:11:11;14.20;99.90
13462;DHT22;6803;45.264;5.468;2022-12-20T14:13:49;14.00;99.90
13462;DHT22;6803;45.264;5.468;2022-12-20T14:16:16;14.20;99.90
13462;DHT22;6803;45.264;5.468;2022-12-20T14:18:52;14.10;99.90
13462;DHT22;6803;45.264;5.468;2022-12-20T14:21:23;14.10;99.90
13462;DHT22;6803;45.264;5.468;2022-12-20T14:23:57;14.10;99.90
13462;DHT22;6803;45.264;5.468;2022-12-20T14:26:31;14.10;99.90
13462;DHT22;6803;45.264;5.468;2022-12-20T14:29:03;14.10;99.90
13462;DHT22;6803;45.264;5.468;2022-12-20T14:31:37;14.10;99.90
13462;DHT22;6803;45.264;5.468;2022-12-20T14:34:15;14.10;99.90
13462;DHT22;6803;45.264;5.468;2022-12-20T14:36:48;14.00;99.90
13462;DHT22;6803;45.264;5.468;2022-12-20T14:39:24;13.90;99.90
13462;DHT22;6803;45.264;5.468;2022-12-20T14:41:59;13.80;99.90
13462;DHT22;6803;45.264;5.468;2022-12-20T14:44:31;13.70;99.90
13462;DHT22;6803;45.264;5.468;2022-12-20T14:47:10;13.70;99.90
13462;DHT22;6803;45.264;5.468;2022-12-20T14:49:37;13.80;99.90
13462;DHT22;6803;45.264;5.468;2022-12-20T14:52:15;13.80;99.90
13462;DHT22;6803;45.264;5.468;2022-12-20T14:54:49;13.60;99.90
13462;DHT22;6803;45.264;5.468;2022-12-20T14:57:25;13.40;99.90
13462;DHT22;6803;45.264;5.468;2022-12-20T15:00:01;13.40;99.90
13462;DHT22;6803;45.264;5.468;2022-12-20T15:02:38;13.40;99.90
13462;DHT22;6803;45.264;5.468;2022-12-20T15:08:11;13.30;99.90
13462;DHT22;6803;45.264;5.468;2022-12-20T15:10:46;13.20;99.90
13462;DHT22;6803;45.264;5.468;2022-12-20T15:13:17;13.50;99.90
13462;DHT22;6803;45.264;5.468;2022-12-20T15:15:48;13.40;99.90
13462;DHT22;6803;45.264;5.468;2022-12-20T15:18:20;13.30;99.90
13462;DHT22;6803;45.264;5.468;2022-12-20T15:20:57;13.20;99.90
13462;DHT22;6803;45.264;5.468;2022-12-20T15:23:28;13.10;99.90
13462;DHT22;6803;45.264;5.468;2022-12-20T15:25:59;13.30;99.90
13462;DHT22;6803;45.264;5.468;2022-12-20T15:28:32;13.30;99.90
13462;DHT22;6803;45.264;5.468;2022-12-20T15:31:03;13.30;99.90
13462;DHT22;6803;45.264;5.468;2022-12-20T15:33:36;13.30;99.90
13462;DHT22;6803;45.264;5.468;2022-12-20T15:36:10;13.30;99.90
13462;DHT22;6803;45.264;5.468;2022-12-20T15:38:41;13.50;99.90
13462;DHT22;6803;45.264;5.468;2022-12-20T15:41:16;13.40;99.90
13462;DHT22;6803;45.264;5.468;2022-12-20T15:43:50;13.50;99.90
13462;DHT22;6803;45.264;5.468;2022-12-20T15:46:21;13.40;99.90
13462;DHT22;6803;45.264;5.468;2022-12-20T15:48:52;13.40;99.90
13462;DHT22;6803;45.264;5.468;2022-12-20T15:51:26;13.50;99.90
13462;DHT22;6803;45.264;5.468;2022-12-20T15:53:58;13.50;99.90
13462;DHT22;6803;45.264;5.468;2022-12-20T15:56:30;13.60;99.90
13462;DHT22;6803;45.264;5.468;2022-12-20T15:59:00;13.50;99.90
13462;DHT22;6803;45.264;5.468;2022-12-20T16:01:35;13.40;99.90
13462;DHT22;6803;45.264;5.468;2022-12-20T16:04:12;13.60;99.90
13462;DHT22;6803;45.264;5.468;2022-12-20T16:06:45;13.40;99.90
13462;DHT22;6803;45.264;5.468;2022-12-20T16:09:16;13.40;99.90
13462;DHT22;6803;45.264;5.468;2022-12-20T16:11:47;13.30;99.90
13462;DHT22;6803;45.264;5.468;2022-12-20T16:14:20;13.30;99.90
13462;DHT22;6803;45.264;5.468;2022-12-20T16:16:51;13.20;99.90
13462;DHT22;6803;45.264;5.468;2022-12-20T16:19:21;13.20;99.90
13462;DHT22;6803;45.264;5.468;2022-12-20T16:21:53;13.10;99.90
13462;DHT22;6803;45.264;5.468;2022-12-20T16:24:24;13.20;99.90
13462;DHT22;6803;45.264;5.468;2022-12-20T16:26:55;13.20;99.90
13462;DHT22;6803;45.264;5.468;2022-12-20T16:29:25;13.10;99.90
13462;DHT22;6803;45.264;5.468;2022-12-20T16:31:56;13.00;99.90
13462;DHT22;6803;45.264;5.468;2022-12-20T16:34:27;12.90;99.90
13462;DHT22;6803;45.264;5.468;2022-12-20T16:36:57;12.90;99.90
13462;DHT22;6803;45.264;5.468;2022-12-20T16:39:29;12.90;99.90
13462;DHT22;6803;45.264;5.468;2022-12-20T16:42:00;12.80;99.90
13462;DHT22;6803;45.264;5.468;2022-12-20T16:44:31;12.70;99.90
13462;DHT22;6803;45.264;5.468;2022-12-20T16:47:02;12.70;99.90
13462;DHT22;6803;45.264;5.468;2022-12-20T16:49:32;13.00;99.90
13462;DHT22;6803;45.264;5.468;2022-12-20T16:52:04;13.00;99.90
13462;DHT22;6803;45.264;5.468;2022-12-20T16:54:35;13.00;99.90
13462;DHT22;6803;45.264;5.468;2022-12-20T16:57:08;13.00;99.90